Time;durP1;ratioP1;P1;durP2;ratioP2;P2;SDS_P1;SDS_P2;PMS_P1;PMS_P2;Temp;Humidity;BMP_temperature;BMP_pressure;BME280_temperature;BME280_humidity;BME280_pressure;Samples;Min_cycle;Max_cycle;Signal;HPM_P1;HPM_P2
2022/03/13 00:00:38;;;;;;;141.73;60.35;;;;;;;-2.25;50.27;96022.72;4914345;29;20048;-79
2022/03/13 00:03:05;;;;;;;288.92;121.05;;;;;;;-2.27;50.42;96018.69;4917907;29;20044;-78
2022/03/13 00:05:32;;;;;;;225.35;94.55;;;;;;;-2.38;50.50;96018.72;4901145;29;20046;-77
2022/03/13 00:07:58;;;;;;;175.27;77.35;;;;;;;-2.47;50.51;96015.97;4916978;29;20036;-77
2022/03/13 00:10:27;;;;;;;172.65;71.32;;;;;;;-2.52;49.99;96018.06;4900669;29;20491;-78
2022/03/13 00:12:54;;;;;;;159.30;68.68;;;;;;;-2.66;50.53;96015.81;4892001;29;20164;-78
2022/03/13 00:15:35;;;;;;;148.25;63.47;;;;;;;-2.56;50.98;96006.53;4907533;29;20515;-78
2022/03/13 00:18:01;;;;;;;136.52;61.13;;;;;;;-2.52;50.13;96010.44;4906032;29;20046;-78
2022/03/13 00:20:27;;;;;;;139.45;59.53;;;;;;;-2.63;50.42;96013.00;4914520;29;20051;-78
2022/03/13 00:22:54;;;;;;;130.10;58.95;;;;;;;-2.65;50.61;96017.44;4914878;29;20032;-78
2022/03/13 00:25:20;;;;;;;142.77;59.63;;;;;;;-2.74;50.79;96006.25;4914335;29;20036;-77
2022/03/13 00:27:46;;;;;;;116.40;50.33;;;;;;;-2.73;50.84;96012.94;4906251;29;20059;-79
2022/03/13 00:30:11;;;;;;;101.32;43.67;;;;;;;-2.79;50.54;96007.53;4905524;29;20044;-79
2022/03/13 00:32:37;;;;;;;98.32;48.10;;;;;;;-2.82;51.10;96010.31;4922895;29;20087;-79
2022/03/13 00:35:03;;;;;;;142.32;59.38;;;;;;;-2.80;50.92;96009.25;4929766;29;20485;-79
2022/03/13 00:37:29;;;;;;;147.48;57.03;;;;;;;-2.76;51.65;96013.19;4882503;29;20084;-79
2022/03/13 00:39:56;;;;;;;200.27;88.20;;;;;;;-2.76;50.92;96020.03;4918340;29;20508;-79
2022/03/13 00:45:14;;;;;;;170.95;76.57;;;;;;;-2.87;51.83;96008.13;4915061;29;20083;-78
2022/03/13 00:47:39;;;;;;;147.40;64.47;;;;;;;-2.82;51.69;96000.13;4914302;29;20060;-78
2022/03/13 00:50:06;;;;;;;121.05;55.00;;;;;;;-2.85;51.83;96001.19;4919196;29;20056;-79
2022/03/13 00:52:31;;;;;;;106.28;48.83;;;;;;;-2.94;52.36;96004.44;4911875;29;20020;-79
2022/03/13 00:54:57;;;;;;;108.88;46.67;;;;;;;-2.93;52.77;95995.06;4935016;29;20092;-79
2022/03/13 00:57:22;;;;;;;96.20;42.40;;;;;;;-2.94;52.12;95991.72;4900173;29;20478;-79
2022/03/13 00:59:48;;;;;;;90.82;43.00;;;;;;;-2.95;52.54;95989.28;4920088;29;20037;-79
2022/03/13 01:02:14;;;;;;;111.97;49.60;;;;;;;-2.92;53.08;95991.63;4897149;29;20440;-79
2022/03/13 01:04:39;;;;;;;122.53;53.45;;;;;;;-2.85;52.70;95992.75;4888492;29;20032;-79
2022/03/13 01:07:05;;;;;;;108.50;50.28;;;;;;;-2.86;53.48;95988.56;4872833;29;20048;-79
2022/03/13 01:09:31;;;;;;;121.75;53.42;;;;;;;-2.86;53.06;95986.84;4895176;29;20528;-79
2022/03/13 01:11:56;;;;;;;106.00;50.40;;;;;;;-2.83;52.21;95976.41;4887058;29;20044;-79
2022/03/13 01:14:23;;;;;;;100.43;44.70;;;;;;;-2.77;52.23;95975.09;4901906;29;20025;-79
2022/03/13 01:16:49;;;;;;;87.85;40.33;;;;;;;-2.89;52.83;95978.66;4888783;29;20063;-79
2022/03/13 01:19:14;;;;;;;91.22;41.13;;;;;;;-2.90;53.30;95977.84;4888128;29;20419;-79
2022/03/13 01:21:43;;;;;;;127.55;48.72;;;;;;;-2.93;53.33;95970.44;4888752;29;20096;-79
2022/03/13 01:24:15;;;;;;;163.77;60.20;;;;;;;-2.90;52.41;95965.13;4872962;29;20048;-79
2022/03/13 01:26:42;;;;;;;154.88;56.92;;;;;;;-2.91;52.45;95960.16;4888445;29;20173;-79
2022/03/13 01:29:09;;;;;;;138.65;51.97;;;;;;;-2.92;52.34;95961.06;4872511;29;20045;-79
2022/03/13 01:31:36;;;;;;;85.88;37.08;;;;;;;-2.92;51.19;95961.06;4901946;29;20037;-79
2022/03/13 01:34:02;;;;;;;64.90;30.10;;;;;;;-2.97;51.30;95955.53;4894964;29;20116;-79
2022/03/13 01:36:28;;;;;;;64.47;28.38;;;;;;;-2.95;51.26;95953.66;4894806;29;20084;-79
2022/03/13 01:38:56;;;;;;;47.17;24.48;;;;;;;-2.95;51.12;95946.03;4894548;29;20040;-79
2022/03/13 01:41:22;;;;;;;44.13;20.20;;;;;;;-3.11;49.97;95952.31;4880277;29;20108;-79
2022/03/13 01:43:48;;;;;;;36.20;18.50;;;;;;;-3.26;50.44;95950.97;4894746;29;20089;-79
2022/03/13 01:46:13;;;;;;;53.33;24.60;;;;;;;-3.42;51.11;95950.53;4909791;29;20037;-79
2022/03/13 01:48:59;;;;;;;61.20;25.08;;;;;;;-3.41;51.50;95947.09;4870994;29;20080;-79
2022/03/13 01:51:25;;;;;;;47.65;22.38;;;;;;;-3.54;51.67;95954.03;4886281;29;20041;-79
2022/03/13 01:54:10;;;;;;;35.40;18.55;;;;;;;-3.67;52.26;95952.41;4886503;29;20049;-79
2022/03/13 01:56:36;;;;;;;37.75;19.10;;;;;;;-3.76;51.50;95960.72;4887784;29;20168;-79
2022/03/13 01:59:02;;;;;;;38.90;20.38;;;;;;;-3.71;51.66;95966.28;4893170;29;20044;-78
2022/03/13 02:01:28;;;;;;;42.03;21.00;;;;;;;-3.64;52.08;95962.34;4869973;29;20036;-78
2022/03/13 02:03:54;;;;;;;30.95;17.17;;;;;;;-3.60;50.81;95962.09;4884128;29;20032;-78
2022/03/13 02:06:20;;;;;;;40.08;17.83;;;;;;;-3.56;51.97;95961.78;4892378;29;20053;-78
2022/03/13 02:08:46;;;;;;;35.10;18.85;;;;;;;-3.45;50.59;95961.75;4885476;29;20039;-78
2022/03/13 02:11:15;;;;;;;41.17;19.83;;;;;;;-3.42;51.57;95955.63;4884382;29;20425;-78
2022/03/13 02:13:41;;;;;;;40.53;19.83;;;;;;;-3.47;52.34;95962.78;4883147;29;20562;-78
2022/03/13 02:16:06;;;;;;;45.80;19.67;;;;;;;-3.47;52.41;95965.34;4892503;29;20041;-78
2022/03/13 02:18:32;;;;;;;41.85;21.75;;;;;;;-3.47;52.28;95962.78;4885850;29;20040;-78
2022/03/13 02:20:58;;;;;;;43.13;19.20;;;;;;;-3.44;52.42;95962.56;4886042;29;20048;-78
2022/03/13 02:23:27;;;;;;;44.63;22.38;;;;;;;-3.46;52.25;95964.41;4869713;29;20045;-78
2022/03/13 02:25:57;;;;;;;53.25;25.55;;;;;;;-3.50;52.46;95957.94;4893096;29;20061;-78
2022/03/13 02:28:28;;;;;;;62.47;33.28;;;;;;;-3.51;53.22;95961.41;4908514;29;20097;-78
2022/03/13 02:31:03;;;;;;;69.50;37.40;;;;;;;-3.48;52.68;95956.91;4876032;29;20127;-79
2022/03/13 02:33:29;;;;;;;67.95;38.08;;;;;;;-3.52;52.60;95964.91;4874731;29;20036;-79
2022/03/13 02:35:56;;;;;;;61.85;35.38;;;;;;;-3.54;52.68;95971.84;4893807;29;20033;-79
2022/03/13 02:38:22;;;;;;;55.88;28.85;;;;;;;-3.47;51.82;95972.97;4878138;29;20049;-79
2022/03/13 02:40:48;;;;;;;48.92;24.27;;;;;;;-3.62;52.04;95965.56;4893044;29;20021;-79
2022/03/13 02:43:13;;;;;;;50.70;24.42;;;;;;;-3.63;51.95;95970.78;4896196;29;20048;-78
2022/03/13 02:45:39;;;;;;;46.97;23.70;;;;;;;-3.62;52.54;95965.56;4891532;29;20041;-78
2022/03/13 02:48:06;;;;;;;47.95;25.73;;;;;;;-3.65;52.74;95970.91;4886751;29;20045;-78
2022/03/13 02:50:32;;;;;;;57.25;26.83;;;;;;;-3.68;52.55;95971.13;4885730;29;20041;-77
2022/03/13 02:52:57;;;;;;;67.15;30.30;;;;;;;-3.72;53.04;95974.84;4887330;29;20044;-77
2022/03/13 02:55:23;;;;;;;63.08;31.52;;;;;;;-3.72;53.49;95967.22;4867915;29;20036;-77
2022/03/13 02:57:48;;;;;;;70.72;29.55;;;;;;;-3.66;53.66;95966.75;4884948;29;20432;-77
2022/03/13 03:00:15;;;;;;;63.97;27.75;;;;;;;-3.70;53.31;95973.00;4883449;29;20136;-77
2022/03/13 03:02:41;;;;;;;58.50;28.10;;;;;;;-3.77;53.35;95971.81;4876603;29;20043;-77
2022/03/13 03:05:07;;;;;;;50.00;24.88;;;;;;;-3.79;52.56;95963.50;4888110;29;20135;-77
2022/03/13 03:07:34;;;;;;;56.03;24.02;;;;;;;-3.81;53.03;95962.81;4901840;29;20556;-77
2022/03/13 03:09:59;;;;;;;61.70;23.38;;;;;;;-3.85;53.05;95943.66;4887785;29;20033;-77
2022/03/13 03:12:25;;;;;;;50.92;23.70;;;;;;;-3.89;53.29;95957.50;4887955;29;20136;-77
2022/03/13 03:14:50;;;;;;;38.10;21.02;;;;;;;-3.89;52.78;95952.44;4894438;29;20032;-77
2022/03/13 03:17:16;;;;;;;46.13;20.38;;;;;;;-3.85;53.14;95958.91;4886999;29;20217;-77
2022/03/13 03:19:42;;;;;;;50.00;21.08;;;;;;;-3.77;53.16;95954.03;4886484;29;20029;-77
2022/03/13 03:22:07;;;;;;;55.95;22.73;;;;;;;-3.74;53.25;95956.38;4894437;29;20044;-77
2022/03/13 03:24:33;;;;;;;48.88;22.08;;;;;;;-3.73;53.21;95965.59;4887514;29;20079;-77
2022/03/13 03:26:59;;;;;;;55.95;24.80;;;;;;;-3.84;52.91;95957.97;4873759;29;20405;-77
2022/03/13 03:29:25;;;;;;;51.33;25.17;;;;;;;-3.90;53.47;95960.97;4886097;29;20033;-77
2022/03/13 03:31:51;;;;;;;47.30;26.85;;;;;;;-3.88;53.33;95959.13;4871824;29;20549;-78
2022/03/13 03:34:19;;;;;;;32.28;19.83;;;;;;;-3.81;53.30;95950.09;4911784;29;20048;-78
2022/03/13 03:36:52;;;;;;;34.90;20.45;;;;;;;-3.82;53.11;95948.50;4870257;29;20048;-78
2022/03/13 03:39:18;;;;;;;38.75;19.48;;;;;;;-3.81;53.29;95950.09;4910682;29;20100;-78
2022/03/13 03:41:45;;;;;;;40.25;18.80;;;;;;;-3.77;52.91;95946.41;4910848;29;20403;-78
2022/03/13 03:44:11;;;;;;;35.88;17.77;;;;;;;-3.70;52.59;95944.22;4910967;29;20111;-78
2022/03/13 03:46:37;;;;;;;31.67;16.83;;;;;;;-3.63;51.96;95943.63;4887750;29;20128;-78
2022/03/13 03:49:02;;;;;;;36.20;18.60;;;;;;;-3.62;50.65;95945.25;4885134;29;20128;-78
2022/03/13 03:51:28;;;;;;;35.53;17.92;;;;;;;-3.66;51.86;95948.16;4888437;29;20108;-78
2022/03/13 03:53:53;;;;;;;33.63;16.85;;;;;;;-3.72;52.04;95959.59;4895794;29;20036;-78
2022/03/13 03:56:19;;;;;;;31.67;16.77;;;;;;;-3.80;51.90;95951.72;4907587;29;20059;-78
2022/03/13 03:58:44;;;;;;;39.97;16.50;;;;;;;-3.87;51.82;95949.78;4887882;29;20032;-78
2022/03/13 04:01:09;;;;;;;28.25;15.27;;;;;;;-3.92;52.06;95953.44;4870112;29;20041;-78
2022/03/13 04:03:35;;;;;;;24.15;14.02;;;;;;;-3.96;51.45;95948.72;4902419;29;20033;-78
2022/03/13 04:06:00;;;;;;;30.23;14.77;;;;;;;-4.03;52.09;95956.00;4910073;29;20052;-78
2022/03/13 04:08:26;;;;;;;28.40;14.43;;;;;;;-4.04;51.54;95953.59;4900108;29;20108;-78
2022/03/13 04:10:52;;;;;;;24.80;13.20;;;;;;;-4.01;52.11;95950.81;4910893;29;20041;-78
2022/03/13 04:13:18;;;;;;;29.50;14.32;;;;;;;-3.97;51.80;95947.09;4889597;29;20581;-79
2022/03/13 04:15:44;;;;;;;19.45;11.88;;;;;;;-3.96;50.96;95946.19;4890106;29;20069;-79
2022/03/13 04:18:10;;;;;;;29.33;12.18;;;;;;;-3.89;51.37;95936.38;4873942;29;20041;-79
2022/03/13 04:20:35;;;;;;;22.45;12.60;;;;;;;-3.89;51.38;95933.84;4873224;29;20096;-77
2022/03/13 04:23:01;;;;;;;30.75;14.20;;;;;;;-3.81;50.75;95932.31;4900830;29;20029;-78
2022/03/13 04:25:26;;;;;;;23.90;13.32;;;;;;;-3.68;50.60;95930.47;4889584;29;20096;-79
2022/03/13 04:27:52;;;;;;;28.30;14.43;;;;;;;-3.59;50.42;95928.94;4891240;29;20037;-78
2022/03/13 04:30:17;;;;;;;18.15;12.63;;;;;;;-3.61;50.68;95925.72;4889497;29;20036;-79
2022/03/13 04:32:43;;;;;;;23.77;12.73;;;;;;;-3.57;50.83;95923.78;4873332;29;20046;-78
2022/03/13 04:35:09;;;;;;;29.17;13.88;;;;;;;-3.51;50.46;95916.47;4889184;29;20025;-79
2022/03/13 04:37:34;;;;;;;21.70;12.85;;;;;;;-3.44;50.60;95921.88;4888257;29;20039;-79
2022/03/13 04:40:00;;;;;;;19.65;12.90;;;;;;;-3.31;49.54;95930.19;4886701;29;20041;-77
2022/03/13 04:42:25;;;;;;;20.42;12.23;;;;;;;-3.29;49.76;95930.84;4902688;29;20044;-79
2022/03/13 04:44:51;;;;;;;27.13;14.73;;;;;;;-3.28;49.82;95932.47;4856086;29;20069;-79
2022/03/13 04:47:17;;;;;;;21.45;13.57;;;;;;;-3.33;49.94;95937.13;4871671;29;20055;-80
2022/03/13 04:49:42;;;;;;;36.90;16.00;;;;;;;-3.30;49.92;95934.34;4889047;29;20553;-79
2022/03/13 04:52:08;;;;;;;24.70;14.38;;;;;;;-3.42;50.08;95932.72;4910342;29;20044;-78
2022/03/13 04:54:33;;;;;;;31.92;13.48;;;;;;;-3.48;50.75;95925.59;4887049;29;20033;-78
2022/03/13 04:56:59;;;;;;;25.55;14.73;;;;;;;-3.49;49.87;95936.69;4889972;29;20112;-78
2022/03/13 04:59:24;;;;;;;25.85;13.88;;;;;;;-3.60;49.55;95929.06;4886115;29;20025;-78
2022/03/13 05:01:52;;;;;;;23.92;13.43;;;;;;;-3.62;49.78;95927.44;4887606;29;20041;-78
2022/03/13 05:04:18;;;;;;;19.70;12.77;;;;;;;-3.71;50.51;95925.63;4888709;29;20112;-78
2022/03/13 05:06:45;;;;;;;22.85;13.25;;;;;;;-3.82;50.34;95937.53;4871315;29;20052;-78
2022/03/13 05:09:10;;;;;;;25.40;13.05;;;;;;;-3.74;50.00;95930.94;4888375;29;20044;-79
2022/03/13 05:11:36;;;;;;;25.35;12.68;;;;;;;-3.66;51.02;95938.78;4886641;29;20037;-78
2022/03/13 05:14:01;;;;;;;28.77;14.50;;;;;;;-3.57;50.37;95939.03;4893480;29;20084;-79
2022/03/13 05:16:27;;;;;;;28.08;14.18;;;;;;;-3.47;50.05;95945.00;4890543;29;20440;-79
2022/03/13 05:18:53;;;;;;;24.27;14.65;;;;;;;-3.55;50.57;95948.16;4871758;29;20135;-79
2022/03/13 05:21:18;;;;;;;25.58;14.40;;;;;;;-3.43;50.37;95943.81;4891076;29;20025;-80
2022/03/13 05:23:44;;;;;;;24.15;13.60;;;;;;;-3.28;49.74;95942.66;4918025;29;20045;-79
2022/03/13 05:26:09;;;;;;;27.70;15.75;;;;;;;-3.15;49.77;95948.41;4885058;29;20267;-78
2022/03/13 05:28:36;;;;;;;23.88;14.15;;;;;;;-2.95;49.80;95949.38;4888542;29;20497;-78
2022/03/13 05:31:02;;;;;;;26.60;14.45;;;;;;;-2.77;49.37;95954.75;4895406;29;20036;-80
2022/03/13 05:33:27;;;;;;;26.35;14.25;;;;;;;-2.68;49.74;95948.94;4879678;29;20048;-76
2022/03/13 05:35:54;;;;;;;27.92;15.43;;;;;;;-2.51;48.93;95957.78;4883198;29;20108;-80
2022/03/13 05:38:19;;;;;;;50.55;23.95;;;;;;;-2.38;49.13;95947.41;4881545;29;20033;-78
2022/03/13 05:40:45;;;;;;;68.85;29.60;;;;;;;-2.26;49.48;95947.22;4870858;29;20520;-79
2022/03/13 05:43:11;;;;;;;92.60;32.78;;;;;;;-2.22;49.35;95951.13;4887606;29;20036;-79
2022/03/13 05:45:39;;;;;;;53.33;22.55;;;;;;;-2.02;49.23;95959.69;4888943;29;20045;-78
2022/03/13 05:48:08;;;;;;;162.38;61.90;;;;;;;-1.87;49.34;95952.50;4894236;29;20428;-79
2022/03/13 05:50:34;;;;;;;123.00;53.38;;;;;;;-1.72;48.48;95958.09;4888320;29;20482;-78
2022/03/13 05:53:00;;;;;;;83.25;43.10;;;;;;;-1.51;47.30;95953.72;4887765;29;20055;-78
2022/03/13 05:55:26;;;;;;;61.55;31.23;;;;;;;-1.38;47.18;95949.19;4886159;29;20052;-78
2022/03/13 05:57:55;;;;;;;51.72;24.75;;;;;;;-1.28;46.72;95946.69;4871103;29;20025;-79
2022/03/13 06:00:23;;;;;;;44.90;22.25;;;;;;;-1.13;46.17;95947.94;4885674;29;20120;-79
2022/03/13 06:02:48;;;;;;;42.25;19.05;;;;;;;-1.00;46.08;95958.66;4910616;29;20041;-79
2022/03/13 06:05:17;;;;;;;51.70;18.80;;;;;;;-0.92;45.74;95951.16;4870068;29;20055;-78
2022/03/13 06:07:42;;;;;;;41.92;19.23;;;;;;;-0.78;45.49;95960.19;4884097;29;20036;-77
2022/03/13 06:10:08;;;;;;;32.83;17.63;;;;;;;-0.72;44.83;95956.28;4885037;29;20065;-77
2022/03/13 06:12:34;;;;;;;32.20;18.35;;;;;;;-0.55;45.06;95959.91;4885990;29;20125;-80
2022/03/13 06:15:00;;;;;;;42.22;18.67;;;;;;;-0.39;44.14;95967.84;4863460;29;20036;-81
2022/03/13 06:17:25;;;;;;;45.80;20.40;;;;;;;-0.29;43.62;95966.09;4881625;29;20094;-81
2022/03/13 06:19:51;;;;;;;43.97;20.55;;;;;;;-0.21;43.98;95958.53;4904594;29;20140;-80
2022/03/13 06:22:18;;;;;;;31.08;19.13;;;;;;;-0.18;44.14;95965.91;4894625;29;20454;-81
2022/03/13 06:24:43;;;;;;;45.88;20.27;;;;;;;0.18;44.02;95955.91;4893879;29;20033;-78
2022/03/13 06:27:10;;;;;;;44.40;21.38;;;;;;;0.49;43.78;95956.47;4907702;29;20059;-78
2022/03/13 06:29:39;;;;;;;35.80;19.27;;;;;;;0.86;43.60;95961.53;4888727;29;20029;-79
2022/03/13 06:32:05;;;;;;;35.72;19.52;;;;;;;1.19;41.89;95958.34;4887190;29;20037;-78
2022/03/13 06:34:30;;;;;;;38.28;19.80;;;;;;;1.45;41.36;95963.53;4871843;29;20052;-78
2022/03/13 06:36:56;;;;;;;35.60;19.00;;;;;;;1.75;41.63;95970.03;4903054;29;20044;-78
2022/03/13 06:39:22;;;;;;;56.67;23.33;;;;;;;2.04;41.40;95971.53;4911847;29;20418;-78
2022/03/13 06:41:48;;;;;;;49.72;24.00;;;;;;;2.33;39.43;95973.78;4915483;29;20037;-78
2022/03/13 06:44:13;;;;;;;49.50;25.58;;;;;;;2.52;39.24;95968.44;4885568;29;20077;-77
2022/03/13 06:46:39;;;;;;;167.27;64.57;;;;;;;2.65;39.86;95973.16;4883477;29;20045;-77
2022/03/13 06:49:05;;;;;;;60.08;27.73;;;;;;;2.94;39.21;95965.88;4885390;29;20045;-77
2022/03/13 06:51:31;;;;;;;40.70;21.52;;;;;;;3.16;38.69;95956.75;4883879;29;20693;-78
2022/03/13 06:53:57;;;;;;;44.80;22.35;;;;;;;3.22;37.71;95960.47;4869611;29;20072;-77
2022/03/13 06:56:22;;;;;;;48.45;21.83;;;;;;;3.25;37.29;95955.00;4898815;29;20076;-77
2022/03/13 06:58:48;;;;;;;45.45;21.15;;;;;;;3.27;37.39;95958.25;4889314;29;20036;-79
2022/03/13 07:01:13;;;;;;;47.30;22.88;;;;;;;3.38;37.36;95949.41;4888027;29;20099;-79
2022/03/13 07:03:39;;;;;;;55.50;25.83;;;;;;;3.66;36.38;95947.34;4888630;29;20037;-79
2022/03/13 07:06:05;;;;;;;64.25;30.48;;;;;;;3.75;36.43;95942.03;4889338;29;20119;-79
2022/03/13 07:08:32;;;;;;;58.97;28.02;;;;;;;3.80;35.83;95939.78;4895737;29;20040;-79
2022/03/13 07:10:59;;;;;;;67.35;28.58;;;;;;;3.81;36.61;95938.00;4872204;29;20043;-80
2022/03/13 07:13:30;;;;;;;54.08;29.73;;;;;;;3.84;36.21;95935.09;4887987;29;20442;-80
2022/03/13 07:15:56;;;;;;;63.65;34.78;;;;;;;3.93;35.61;95934.16;4873743;29;20037;-81
2022/03/13 07:18:22;;;;;;;68.88;33.92;;;;;;;4.19;35.62;95937.28;4886419;29;20044;-81
2022/03/13 07:20:47;;;;;;;55.90;28.38;;;;;;;4.40;34.54;95930.81;4879297;29;20036;-79
2022/03/13 07:23:13;;;;;;;42.20;21.42;;;;;;;4.34;33.42;95931.47;4895743;29;20453;-81
2022/03/13 07:25:38;;;;;;;44.75;21.85;;;;;;;4.20;33.69;95936.31;4890568;29;20056;-80
2022/03/13 07:28:05;;;;;;;43.75;23.35;;;;;;;4.17;34.11;95936.66;4913825;29;20424;-80
2022/03/13 07:30:32;;;;;;;49.47;25.20;;;;;;;4.19;34.01;95936.50;4887395;29;20057;-80
2022/03/13 07:32:57;;;;;;;56.03;22.77;;;;;;;4.36;33.60;95944.97;4890360;29;20033;-81
2022/03/13 07:35:23;;;;;;;52.20;24.35;;;;;;;4.47;34.11;95934.34;4890120;29;20652;-81
2022/03/13 07:37:59;;;;;;;48.47;22.65;;;;;;;4.59;33.51;95938.16;4910666;29;20033;-80
2022/03/13 07:40:24;;;;;;;45.80;23.58;;;;;;;4.82;33.26;95941.59;4872152;29;20053;-80
2022/03/13 07:42:50;;;;;;;49.47;23.70;;;;;;;4.98;33.04;95934.75;4887636;29;20505;-80
2022/03/13 07:45:15;;;;;;;47.58;23.33;;;;;;;5.03;33.35;95937.63;4936132;23;20050;-80
2022/03/13 07:47:41;;;;;;;41.28;22.95;;;;;;;5.13;33.06;95943.38;4934390;29;20051;-80
2022/03/13 07:50:07;;;;;;;54.92;24.10;;;;;;;5.24;31.94;95945.56;4922905;29;20032;-80
2022/03/13 07:52:33;;;;;;;41.10;23.63;;;;;;;5.35;32.44;95936.63;4916739;29;20471;-81
2022/03/13 07:54:58;;;;;;;42.60;22.60;;;;;;;5.51;31.57;95939.09;4914487;29;20044;-77
2022/03/13 07:57:24;;;;;;;48.05;23.90;;;;;;;5.40;31.81;95942.09;4917816;29;20044;-79
2022/03/13 07:59:49;;;;;;;43.30;22.92;;;;;;;5.21;31.59;95938.19;4917689;29;20036;-79
2022/03/13 08:04:46;;;;;;;47.10;21.80;;;;;;;5.01;31.96;95926.69;4924128;23;20056;-78
2022/03/13 08:07:11;;;;;;;42.67;23.83;;;;;;;5.08;32.21;95919.88;4915835;29;20043;-78
2022/03/13 08:09:38;;;;;;;43.47;22.70;;;;;;;5.17;31.58;95918.06;4918120;29;20476;-79
2022/03/13 08:12:04;;;;;;;41.25;22.52;;;;;;;5.29;31.79;95912.34;4916615;29;20036;-78
2022/03/13 08:14:30;;;;;;;41.90;22.33;;;;;;;5.54;31.60;95914.75;4900841;29;20067;-79
2022/03/13 08:16:55;;;;;;;41.00;21.90;;;;;;;5.77;30.68;95905.19;4929447;29;20032;-79
2022/03/13 08:19:21;;;;;;;38.85;21.27;;;;;;;6.03;31.23;95898.88;4917270;29;20496;-79
2022/03/13 08:21:47;;;;;;;39.65;22.85;;;;;;;6.08;31.27;95901.72;4885235;29;20048;-79
2022/03/13 08:24:15;;;;;;;44.33;21.65;;;;;;;5.95;30.60;95903.13;4918126;29;20036;-79
2022/03/13 08:26:41;;;;;;;37.92;22.02;;;;;;;5.83;30.74;95899.31;4901577;29;20043;-77
2022/03/13 08:29:06;;;;;;;40.70;22.77;;;;;;;5.83;30.41;95904.47;4920076;29;20044;-78
2022/03/13 08:31:33;;;;;;;32.92;21.70;;;;;;;5.92;30.94;95898.31;4912555;29;20194;-78
2022/03/13 08:33:59;;;;;;;45.10;22.15;;;;;;;6.17;31.22;95890.31;4921543;29;20036;-78
2022/03/13 08:36:25;;;;;;;39.67;22.40;;;;;;;6.39;31.18;95893.78;4917428;29;20032;-81
2022/03/13 08:38:50;;;;;;;54.67;22.00;;;;;;;6.46;30.74;95895.47;4900669;29;20044;-78
2022/03/13 08:41:16;;;;;;;38.67;21.65;;;;;;;6.53;30.41;95900.75;4916006;29;20039;-79
2022/03/13 08:43:41;;;;;;;40.85;22.38;;;;;;;6.57;29.71;95892.44;4918326;29;20040;-79
2022/03/13 08:46:08;;;;;;;52.25;22.90;;;;;;;6.53;29.72;95893.78;4917931;29;20036;-79
2022/03/13 08:48:35;;;;;;;45.95;23.55;;;;;;;6.41;29.97;95892.63;4916976;29;20044;-78
2022/03/13 08:51:01;;;;;;;60.00;21.40;;;;;;;6.47;29.32;95879.00;4902808;29;20043;-79
2022/03/13 08:53:27;;;;;;;40.05;20.45;;;;;;;6.62;29.67;95879.78;4900558;29;20667;-78
2022/03/13 08:55:52;;;;;;;41.00;22.38;;;;;;;6.73;29.08;95875.13;4885028;29;20044;-78
2022/03/13 08:58:18;;;;;;;41.15;21.52;;;;;;;6.76;29.16;95879.94;4916227;29;20420;-84
2022/03/13 09:00:43;;;;;;;47.28;22.27;;;;;;;6.85;28.87;95878.84;4918762;29;20040;-79
2022/03/13 09:03:10;;;;;;;48.55;22.67;;;;;;;6.91;29.44;95878.13;4918010;29;20044;-83
2022/03/13 09:05:35;;;;;;;48.13;21.73;;;;;;;7.02;29.24;95875.06;4901759;29;20102;-80
2022/03/13 09:08:01;;;;;;;42.17;21.38;;;;;;;7.20;28.68;95878.03;4916487;29;20173;-80
2022/03/13 09:10:27;;;;;;;35.53;19.48;;;;;;;7.39;28.15;95870.63;4920054;29;20044;-80
2022/03/13 09:12:52;;;;;;;40.97;20.23;;;;;;;7.57;28.72;95873.56;4919115;29;20055;-82
2022/03/13 09:15:18;;;;;;;39.70;21.95;;;;;;;7.55;27.71;95867.78;4916445;29;20033;-78
2022/03/13 09:17:43;;;;;;;42.25;21.90;;;;;;;7.60;28.53;95860.25;4917439;29;20040;-81
2022/03/13 09:20:09;;;;;;;39.42;19.40;;;;;;;7.63;27.63;95856.47;4915540;29;20040;-79
2022/03/13 09:22:35;;;;;;;38.90;18.13;;;;;;;7.53;27.79;95851.66;4950853;23;20131;-78
2022/03/13 09:25:01;;;;;;;33.00;19.55;;;;;;;7.47;27.97;95857.53;4941477;28;20027;-79
2022/03/13 09:27:28;;;;;;;38.67;20.20;;;;;;;7.17;27.84;95857.72;4935858;29;20082;-79
2022/03/13 09:29:54;;;;;;;39.90;20.77;;;;;;;6.98;28.71;95853.13;4921199;29;20070;-79
2022/03/13 09:32:22;;;;;;;36.08;21.13;;;;;;;6.91;29.59;95852.25;4902483;29;20119;-79
2022/03/13 09:34:48;;;;;;;47.78;19.20;;;;;;;6.87;28.79;95851.03;4933988;29;20067;-79
2022/03/13 09:37:13;;;;;;;44.13;21.00;;;;;;;6.95;29.07;95850.91;4918590;29;20067;-79
2022/03/13 09:39:39;;;;;;;37.10;19.92;;;;;;;7.03;29.02;95852.59;4919071;29;20051;-79
2022/03/13 09:42:05;;;;;;;37.80;17.33;;;;;;;6.82;28.76;95854.13;4920068;29;20129;-78
2022/03/13 09:44:30;;;;;;;51.97;18.40;;;;;;;6.72;28.82;95843.31;4936438;29;20466;-79
2022/03/13 09:46:56;;;;;;;30.45;16.70;;;;;;;6.73;29.25;95841.53;4935367;29;20047;-79
2022/03/13 09:49:23;;;;;;;38.05;17.98;;;;;;;6.65;29.52;95831.28;4939642;29;20028;-79
2022/03/13 09:51:49;;;;;;;38.08;19.13;;;;;;;6.70;28.67;95834.16;4936344;29;20488;-78
2022/03/13 09:54:14;;;;;;;36.70;17.75;;;;;;;6.72;29.05;95832.19;4935612;29;20051;-79
2022/03/13 09:56:40;;;;;;;38.55;16.27;;;;;;;6.65;29.05;95831.28;4939995;29;20028;-78
2022/03/13 09:59:06;;;;;;;38.50;17.23;;;;;;;6.48;29.37;95830.69;4938486;29;20066;-80
2022/03/13 10:01:32;;;;;;;30.35;16.52;;;;;;;6.59;29.57;95820.69;4936364;29;20044;-79
2022/03/13 10:03:58;;;;;;;29.10;14.27;;;;;;;6.96;29.05;95820.66;4936580;29;20048;-81
2022/03/13 10:06:25;;;;;;;28.83;13.57;;;;;;;7.32;28.97;95818.00;4934628;29;20083;-75
2022/03/13 10:08:51;;;;;;;34.83;15.30;;;;;;;7.67;28.93;95817.09;4933881;29;20070;-79
2022/03/13 10:11:29;;;;;;;27.42;15.15;;;;;;;7.96;28.12;95815.28;4917884;29;20459;-80
2022/03/13 10:13:54;;;;;;;35.40;16.15;;;;;;;8.24;27.34;95813.44;4933157;29;20043;-77
2022/03/13 10:16:34;;;;;;;35.10;16.80;;;;;;;8.47;27.12;95802.03;4915932;29;20047;-77
2022/03/13 10:19:20;;;;;;;42.97;22.02;;;;;;;8.52;27.07;95799.63;4932277;29;20070;-78
2022/03/13 10:22:08;;;;;;;41.35;17.38;;;;;;;8.44;31.15;95805.78;4918265;29;20055;-81
2022/03/13 10:24:51;;;;;;;36.88;17.73;;;;;;;8.50;28.11;95809.41;4938150;29;20048;-80
2022/03/13 10:27:18;;;;;;;28.73;14.30;;;;;;;8.47;29.38;95807.22;4938319;29;20260;-80
2022/03/13 10:29:45;;;;;;;19.08;11.27;;;;;;;8.48;28.16;95808.81;4940202;29;20447;-79
2022/03/13 10:32:11;;;;;;;36.90;11.23;;;;;;;8.55;27.27;95804.44;4934000;29;20043;-77
2022/03/13 10:34:38;;;;;;;17.83;10.75;;;;;;;8.59;27.26;95798.66;4934609;29;20475;-76
2022/03/13 10:37:03;;;;;;;23.08;11.15;;;;;;;8.60;26.81;95796.84;4931512;29;20042;-76
2022/03/13 10:39:30;;;;;;;27.15;11.00;;;;;;;8.56;27.64;95803.44;4915112;29;20044;-76
2022/03/13 10:42:00;;;;;;;34.60;11.25;;;;;;;8.55;26.92;95799.25;4929740;29;20078;-75
2022/03/13 10:44:25;;;;;;;22.77;10.30;;;;;;;8.70;27.21;95790.31;4928689;29;20421;-75
2022/03/13 10:47:03;;;;;;;19.08;10.35;;;;;;;8.74;25.95;95782.94;4927101;29;20047;-75
2022/03/13 10:49:36;;;;;;;24.52;10.27;;;;;;;8.75;25.61;95779.34;4923316;29;20496;-75
2022/03/13 10:52:02;;;;;;;15.05;8.70;;;;;;;8.82;24.46;95784.56;4928368;29;20171;-75
2022/03/13 10:54:37;;;;;;;49.40;16.55;;;;;;;8.95;24.13;95780.22;4913709;29;20071;-75
2022/03/13 10:57:12;;;;;;;19.23;11.88;;;;;;;9.03;24.52;95785.19;4928936;29;20389;-75
2022/03/13 10:59:39;;;;;;;25.83;9.30;;;;;;;9.14;24.72;95778.63;4930105;29;20059;-75
2022/03/13 11:02:14;;;;;;;12.93;7.18;;;;;;;9.13;21.72;95776.22;4930349;29;20040;-75
2022/03/13 11:04:50;;;;;;;9.40;6.72;;;;;;;9.14;23.56;95777.81;4914334;29;20047;-75
2022/03/13 11:07:16;;;;;;;15.85;8.68;;;;;;;9.12;22.81;95769.44;4914541;29;20042;-76
2022/03/13 11:09:42;;;;;;;19.98;9.75;;;;;;;9.07;22.67;95767.44;4930837;29;20036;-75
2022/03/13 11:12:15;;;;;;;21.60;12.68;;;;;;;8.98;23.12;95772.03;4912960;29;20114;-75
2022/03/13 11:14:42;;;;;;;12.50;8.60;;;;;;;8.88;23.85;95766.41;4930197;29;20075;-75
2022/03/13 11:17:08;;;;;;;20.77;11.15;;;;;;;8.87;23.20;95761.41;4913642;29;20126;-75
2022/03/13 11:19:35;;;;;;;37.72;16.23;;;;;;;8.83;23.07;95766.22;4914742;29;20024;-75
2022/03/13 11:22:02;;;;;;;32.97;18.00;;;;;;;8.72;23.28;95764.97;4914308;29;20158;-75